createdAt,value
2019-03-21T00:00:12.668Z,63.67
2019-03-21T00:02:46.491Z,64.00
2019-03-21T00:05:18.818Z,64.07
2019-03-21T00:07:51.024Z,64.06
2019-03-21T00:10:55.046Z,64.55
2019-03-21T00:13:27.290Z,64.37
2019-03-21T00:16:01.826Z,64.61
2019-03-21T00:18:34.032Z,63.97
2019-03-21T00:21:06.434Z,64.48
2019-03-21T00:23:38.374Z,64.30
2019-03-21T00:26:10.502Z,64.32
2019-03-21T00:28:43.838Z,64.59
2019-03-21T00:31:16.126Z,63.96
2019-03-21T00:33:48.641Z,64.53
2019-03-21T00:36:20.601Z,64.54
2019-03-21T00:38:52.859Z,64.71
2019-03-21T00:41:24.746Z,64.46
2019-03-21T00:43:56.696Z,64.02
2019-03-21T00:46:28.854Z,64.27
2019-03-21T00:49:01.023Z,64.54
2019-03-21T00:51:33.088Z,64.42
2019-03-21T00:54:05.261Z,64.67
2019-03-21T00:56:37.266Z,64.64
2019-03-21T00:59:09.281Z,65.50
2019-03-21T01:01:41.499Z,65.11
2019-03-21T01:04:13.354Z,65.18
2019-03-21T01:06:45.571Z,64.96
2019-03-21T01:09:17.661Z,65.09
2019-03-21T01:11:49.853Z,64.82
2019-03-21T01:14:29.839Z,64.88
2019-03-21T01:16:55.412Z,64.78
2019-03-21T01:19:27.374Z,65.00
2019-03-21T01:21:59.320Z,64.89
2019-03-21T01:24:31.239Z,65.01
2019-03-21T01:27:03.364Z,65.16
2019-03-21T01:29:35.197Z,65.18
2019-03-21T01:32:07.087Z,65.43
2019-03-21T01:34:39.237Z,65.85
2019-03-21T01:37:11.518Z,65.67
2019-03-21T01:39:43.735Z,65.65
2019-03-21T01:42:15.832Z,66.64
2019-03-21T01:44:47.930Z,66.73
2019-03-21T01:47:20.374Z,66.94
2019-03-21T01:49:52.283Z,66.55
2019-03-21T01:52:24.239Z,66.64
2019-03-21T01:54:56.326Z,66.97
2019-03-21T01:57:28.522Z,67.15
2019-03-21T02:00:00.745Z,67.33
2019-03-21T02:02:34.042Z,67.62
2019-03-21T02:05:06.421Z,67.21
2019-03-21T02:07:38.625Z,67.18
2019-03-21T02:10:13.263Z,67.36
2019-03-21T02:12:45.517Z,67.40
2019-03-21T02:15:17.845Z,67.68
2019-03-21T02:17:50.068Z,67.92
2019-03-21T02:20:23.134Z,68.65
2019-03-21T02:22:55.194Z,68.90
2019-03-21T02:25:29.023Z,69.01
2019-03-21T02:28:01.297Z,68.75
2019-03-21T02:30:35.133Z,68.86
2019-03-21T02:33:22.449Z,69.19
2019-03-21T02:35:54.618Z,69.04
2019-03-21T02:38:26.647Z,68.79
2019-03-21T02:40:59.107Z,68.98
2019-03-21T02:43:31.401Z,68.38
2019-03-21T02:46:03.284Z,68.78
2019-03-21T02:48:35.246Z,68.76
2019-03-21T02:51:07.626Z,68.35
2019-03-21T02:53:39.844Z,67.82
2019-03-21T02:56:13.548Z,67.72
2019-03-21T02:58:45.423Z,68.23
2019-03-21T03:01:17.237Z,67.38
2019-03-21T03:03:50.199Z,67.34
2019-03-21T03:06:22.165Z,67.01
2019-03-21T03:08:54.387Z,67.03
2019-03-21T03:11:26.904Z,67.53
2019-03-21T03:13:58.918Z,67.38
2019-03-21T03:16:31.101Z,67.61
2019-03-21T03:19:03.262Z,67.54
2019-03-21T03:21:35.020Z,67.13
2019-03-21T03:24:07.904Z,66.29
2019-03-21T03:26:39.803Z,66.37
2019-03-21T03:29:11.732Z,66.70
2019-03-21T03:31:43.509Z,66.99
2019-03-21T03:34:15.693Z,67.04
2019-03-21T03:36:47.906Z,67.79
2019-03-21T03:39:20.108Z,66.89
2019-03-21T03:41:52.162Z,67.05
2019-03-21T03:44:24.111Z,67.32
2019-03-21T03:46:56.063Z,67.25
2019-03-21T03:49:28.349Z,66.88
2019-03-21T03:52:00.508Z,66.49
2019-03-21T03:54:32.585Z,66.54
2019-03-21T03:57:04.374Z,66.92
2019-03-21T03:59:36.484Z,66.54
2019-03-21T04:02:08.439Z,66.90
2019-03-21T04:04:40.750Z,66.56
2019-03-21T04:07:12.755Z,66.42
2019-03-21T04:09:44.782Z,66.59
2019-03-21T04:12:16.950Z,67.47
2019-03-21T04:14:48.894Z,67.08
2019-03-21T04:17:20.726Z,66.91
2019-03-21T04:19:52.748Z,66.91
2019-03-21T04:22:24.826Z,67.25
2019-03-21T04:24:56.857Z,67.29
2019-03-21T04:27:28.994Z,67.22
2019-03-21T04:30:00.871Z,66.82
2019-03-21T04:32:33.059Z,66.83
2019-03-21T04:35:04.939Z,66.96
2019-03-21T04:37:36.709Z,67.12
2019-03-21T04:40:09.212Z,67.45
2019-03-21T04:42:41.452Z,67.22
2019-03-21T04:45:16.572Z,67.68
2019-03-21T04:47:48.622Z,68.02
2019-03-21T04:50:23.232Z,67.71
2019-03-21T04:52:55.406Z,67.49
2019-03-21T04:55:27.649Z,67.03
2019-03-21T04:57:59.746Z,67.45
2019-03-21T05:00:32.830Z,67.29
2019-03-21T05:03:05.624Z,67.77
2019-03-21T05:05:37.467Z,67.47
2019-03-21T05:08:09.433Z,67.25
2019-03-21T05:10:41.411Z,67.22
2019-03-21T05:13:13.640Z,67.20
2019-03-21T05:15:45.791Z,67.64
2019-03-21T05:18:29.900Z,67.00
2019-03-21T05:21:03.017Z,67.05
2019-03-21T05:23:34.863Z,67.25
2019-03-21T05:26:06.750Z,67.31
2019-03-21T05:28:38.617Z,66.92
2019-03-21T05:31:15.767Z,67.01
2019-03-21T05:33:47.595Z,66.17
2019-03-21T05:36:19.766Z,66.78
2019-03-21T05:38:51.722Z,66.51
2019-03-21T05:41:23.841Z,67.05
2019-03-21T05:44:02.481Z,66.34
2019-03-21T05:46:34.683Z,66.23
2019-03-21T05:49:06.682Z,66.29
2019-03-21T05:51:38.471Z,66.44
2019-03-21T05:54:10.630Z,66.21
2019-03-21T05:56:42.455Z,66.18
2019-03-21T05:59:14.274Z,65.75
2019-03-21T06:01:47.028Z,65.65
2019-03-21T06:04:18.881Z,65.28
2019-03-21T06:07:30.873Z,65.66
2019-03-21T06:10:02.845Z,66.46
2019-03-21T06:12:42.633Z,65.97
2019-03-21T06:15:15.867Z,66.03
2019-03-21T06:17:52.992Z,65.29
2019-03-21T06:21:05.117Z,65.59
2019-03-21T06:23:57.257Z,65.31
2019-03-21T06:26:50.431Z,64.83
2019-03-21T06:29:22.372Z,64.36
2019-03-21T06:31:54.334Z,63.98
2019-03-21T06:34:26.436Z,64.42
2019-03-21T06:36:58.247Z,63.94
2019-03-21T06:39:30.333Z,64.07
2019-03-21T06:42:02.375Z,63.53
2019-03-21T06:44:34.311Z,63.81
2019-03-21T06:47:06.258Z,63.50
2019-03-21T06:49:38.020Z,62.49
2019-03-21T06:52:09.874Z,63.67
2019-03-21T06:54:42.076Z,62.55
2019-03-21T06:57:14.114Z,63.20
2019-03-21T06:59:46.370Z,63.11
2019-03-21T07:02:18.323Z,63.07
2019-03-21T07:04:50.377Z,62.50
2019-03-21T07:07:24.121Z,63.38
2019-03-21T07:09:56.947Z,62.79
2019-03-21T07:12:28.927Z,63.48
2019-03-21T07:15:01.177Z,63.51
2019-03-21T07:17:33.430Z,62.91
2019-03-21T07:20:06.199Z,63.21
2019-03-21T07:22:38.598Z,63.54
2019-03-21T07:25:11.384Z,63.67
2019-03-21T07:27:43.599Z,63.38
2019-03-21T07:30:15.869Z,63.65
2019-03-21T07:32:47.948Z,63.20
2019-03-21T07:35:20.335Z,63.69
2019-03-21T07:37:52.239Z,63.62
2019-03-21T07:40:24.676Z,63.55
2019-03-21T07:42:56.787Z,64.00
2019-03-21T07:45:29.019Z,63.45
2019-03-21T07:48:01.256Z,63.61
2019-03-21T07:50:33.628Z,63.80
2019-03-21T07:53:05.842Z,63.53
2019-03-21T07:55:38.064Z,64.10
2019-03-21T07:58:10.049Z,64.10
2019-03-21T08:00:42.709Z,64.30
2019-03-21T08:03:14.898Z,64.15
2019-03-21T08:05:46.975Z,65.11
2019-03-21T08:08:18.858Z,65.05
2019-03-21T08:10:50.800Z,65.64
2019-03-21T08:13:22.943Z,65.15
2019-03-21T08:15:55.159Z,64.27
2019-03-21T08:18:26.906Z,64.07
2019-03-21T08:21:00.295Z,63.92
2019-03-21T08:23:32.296Z,63.92
2019-03-21T08:26:04.531Z,64.34
2019-03-21T08:28:36.595Z,64.88
2019-03-21T08:31:33.185Z,64.89
2019-03-21T08:34:05.590Z,64.42
2019-03-21T08:36:37.678Z,65.29
2019-03-21T08:39:10.398Z,64.91
2019-03-21T08:41:42.616Z,63.98
2019-03-21T08:44:14.456Z,63.78
2019-03-21T08:46:46.289Z,64.01
2019-03-21T08:49:18.406Z,63.54
2019-03-21T08:51:50.321Z,63.41
2019-03-21T08:54:22.597Z,63.92
2019-03-21T08:56:54.868Z,64.66
2019-03-21T08:59:26.722Z,64.09
2019-03-21T09:01:58.865Z,63.16
2019-03-21T09:04:30.897Z,63.58
2019-03-21T09:07:03.147Z,64.44
2019-03-21T09:09:35.437Z,64.78
2019-03-21T09:12:07.668Z,65.39
2019-03-21T09:14:39.483Z,65.79
2019-03-21T09:17:11.612Z,67.17
2019-03-21T09:19:43.653Z,65.06
2019-03-21T09:22:16.198Z,64.69
2019-03-21T09:24:48.242Z,65.58
2019-03-21T09:27:20.425Z,65.05
2019-03-21T09:29:53.769Z,64.93
2019-03-21T09:32:25.972Z,65.04
2019-03-21T09:34:58.105Z,64.03
2019-03-21T09:37:30.014Z,64.50
2019-03-21T09:40:03.174Z,64.90
2019-03-21T09:42:35.187Z,65.33
2019-03-21T09:45:08.253Z,65.41
2019-03-21T09:47:40.212Z,69.78
2019-03-21T09:50:14.652Z,63.80
2019-03-21T09:52:46.629Z,65.29
2019-03-21T09:55:18.721Z,63.81
2019-03-21T09:57:50.728Z,63.71
2019-03-21T10:00:34.161Z,64.79
2019-03-21T10:03:06.648Z,64.61
2019-03-21T10:05:38.716Z,64.76
2019-03-21T10:08:10.740Z,64.32
2019-03-21T10:10:42.577Z,64.45
2019-03-21T10:13:14.483Z,64.07
2019-03-21T10:15:46.460Z,64.28
2019-03-21T10:18:18.405Z,64.65
2019-03-21T10:20:50.265Z,63.96
2019-03-21T10:23:22.150Z,64.32
2019-03-21T10:25:55.879Z,63.95
2019-03-21T10:28:27.588Z,63.03
2019-03-21T10:30:59.338Z,62.79
2019-03-21T10:33:30.905Z,59.78
2019-03-21T10:36:02.517Z,59.27
2019-03-21T10:38:34.276Z,57.87
2019-03-21T10:41:06.029Z,57.85
2019-03-21T10:43:37.900Z,59.35
2019-03-21T10:46:09.473Z,57.62
2019-03-21T10:48:41.217Z,57.03
2019-03-21T10:51:12.913Z,57.71
2019-03-21T10:53:44.436Z,58.41
2019-03-21T10:56:16.346Z,58.08
2019-03-21T10:58:48.109Z,57.67
2019-03-21T11:01:19.888Z,58.29
2019-03-21T11:03:51.682Z,58.69
2019-03-21T11:06:23.426Z,58.58
2019-03-21T11:08:55.305Z,58.53
2019-03-21T11:11:27.252Z,57.97
2019-03-21T11:13:59.082Z,57.03
2019-03-21T11:16:31.574Z,57.49
2019-03-21T11:19:03.489Z,56.74
2019-03-21T11:21:36.138Z,56.82
2019-03-21T11:24:07.830Z,56.17
2019-03-21T11:26:39.646Z,54.24
2019-03-21T11:29:11.193Z,53.77
2019-03-21T11:31:42.830Z,53.82
2019-03-21T11:34:14.528Z,53.22
2019-03-21T11:36:45.963Z,52.83
2019-03-21T11:39:17.742Z,51.53
2019-03-21T11:41:49.404Z,50.31
2019-03-21T11:44:22.107Z,50.65
2019-03-21T11:46:53.663Z,47.85
2019-03-21T11:49:25.161Z,47.85
2019-03-21T11:51:56.912Z,49.48
2019-03-21T11:54:28.463Z,47.85
2019-03-21T11:56:59.956Z,48.90
2019-03-21T11:59:46.185Z,47.41
2019-03-21T12:02:05.024Z,46.22
2019-03-21T12:04:36.628Z,46.22
2019-03-21T12:07:08.524Z,46.31
2019-03-21T12:09:40.242Z,45.66
2019-03-21T12:12:11.919Z,46.52
2019-03-21T12:14:43.441Z,48.66
2019-03-21T12:17:15.013Z,48.86
2019-03-21T12:19:46.701Z,48.86
2019-03-21T12:22:29.146Z,49.17
2019-03-21T12:24:51.804Z,49.06
2019-03-21T12:27:23.866Z,49.83
2019-03-21T12:29:55.640Z,50.98
2019-03-21T12:32:27.598Z,50.11
2019-03-21T12:35:00.429Z,49.90
2019-03-21T12:37:32.170Z,50.31
2019-03-21T12:40:03.735Z,51.39
2019-03-21T12:42:36.555Z,50.60
2019-03-21T12:45:10.502Z,50.69
2019-03-21T12:47:42.230Z,51.58
2019-03-21T12:50:14.067Z,49.76
2019-03-21T12:52:45.893Z,50.08
2019-03-21T12:55:17.768Z,49.77
2019-03-21T12:57:49.679Z,48.10
2019-03-21T13:00:46.947Z,48.24
2019-03-21T13:03:18.557Z,48.24
2019-03-21T13:05:50.082Z,49.20
2019-03-21T13:08:33.080Z,48.83
2019-03-21T13:10:55.016Z,49.99
2019-03-21T13:13:26.631Z,48.73
2019-03-21T13:15:58.680Z,49.04
2019-03-21T13:18:30.710Z,48.86
2019-03-21T13:21:02.889Z,48.61
2019-03-21T13:23:34.790Z,48.92
2019-03-21T13:26:06.720Z,49.09
2019-03-21T13:28:38.251Z,48.67
2019-03-21T13:31:10.245Z,49.04
2019-03-21T13:33:42.340Z,49.08
2019-03-21T13:36:15.369Z,48.97
2019-03-21T13:38:47.126Z,48.29
2019-03-21T13:41:19.901Z,48.78
2019-03-21T13:43:51.717Z,48.49
2019-03-21T13:46:23.225Z,48.36
2019-03-21T13:48:54.813Z,48.36
2019-03-21T13:51:26.592Z,48.83
2019-03-21T13:53:58.045Z,48.41
2019-03-21T13:56:37.785Z,48.89
2019-03-21T13:59:02.923Z,49.16
2019-03-21T14:01:34.669Z,49.37
2019-03-21T14:04:06.363Z,48.72
2019-03-21T14:06:38.115Z,48.21
2019-03-21T14:09:10.088Z,48.26
2019-03-21T14:11:41.611Z,48.27
2019-03-21T14:14:13.073Z,48.26
2019-03-21T14:16:44.599Z,49.26
2019-03-21T14:19:16.176Z,49.35
2019-03-21T14:21:48.221Z,49.13
2019-03-21T14:24:20.163Z,48.87
2019-03-21T14:26:51.687Z,49.04
2019-03-21T14:29:23.311Z,49.83
2019-03-21T14:31:54.791Z,49.84
2019-03-21T14:34:26.459Z,49.74
2019-03-21T14:36:58.071Z,49.88
2019-03-21T14:39:30.236Z,50.25
2019-03-21T14:42:01.954Z,50.62
2019-03-21T14:44:33.872Z,50.94
2019-03-21T14:47:05.708Z,51.04
2019-03-21T14:49:37.652Z,51.15
2019-03-21T14:52:09.401Z,51.08
2019-03-21T14:54:41.213Z,51.50
2019-03-21T14:57:13.182Z,51.77
2019-03-21T14:59:45.051Z,51.78
2019-03-21T15:02:16.724Z,51.88
2019-03-21T15:04:48.310Z,52.29
2019-03-21T15:07:20.004Z,52.24
2019-03-21T15:09:51.720Z,52.83
2019-03-21T15:12:23.395Z,52.68
2019-03-21T15:14:54.962Z,52.98
2019-03-21T15:17:26.794Z,53.62
2019-03-21T15:19:58.601Z,53.83
2019-03-21T15:22:30.191Z,54.16
2019-03-21T15:25:01.642Z,54.47
2019-03-21T15:27:33.722Z,54.69
2019-03-21T15:30:06.438Z,54.65
2019-03-21T15:32:38.193Z,55.23
2019-03-21T15:35:11.198Z,55.45
2019-03-21T15:37:42.984Z,56.04
2019-03-21T15:40:15.471Z,56.01
2019-03-21T15:42:47.032Z,55.90
2019-03-21T15:45:23.607Z,56.14
2019-03-21T15:47:52.425Z,56.79
2019-03-21T15:50:32.026Z,56.27
2019-03-21T15:53:03.639Z,56.09
2019-03-21T15:55:35.412Z,56.14
2019-03-21T15:58:07.333Z,56.55
2019-03-21T16:00:40.653Z,56.59
2019-03-21T16:03:13.241Z,57.23
2019-03-21T16:05:45.047Z,57.30
2019-03-21T16:08:16.574Z,57.25
2019-03-21T16:10:48.493Z,57.32
2019-03-21T16:13:20.391Z,57.58
2019-03-21T16:15:52.198Z,57.49
2019-03-21T16:18:25.138Z,57.53
2019-03-21T16:20:57.231Z,57.75
2019-03-21T16:23:29.167Z,57.84
2019-03-21T16:26:00.948Z,58.09
2019-03-21T16:28:32.682Z,58.14
2019-03-21T16:31:04.542Z,58.43
2019-03-21T16:33:36.402Z,58.18
2019-03-21T16:36:08.313Z,58.20
2019-03-21T16:38:40.218Z,58.37
2019-03-21T16:41:11.966Z,57.87
2019-03-21T16:43:43.848Z,58.20
2019-03-21T16:46:15.659Z,58.09
2019-03-21T16:48:47.529Z,57.84
2019-03-21T16:51:19.161Z,58.09
2019-03-21T16:53:50.946Z,58.32
2019-03-21T16:56:23.049Z,58.08
2019-03-21T16:58:55.751Z,58.14
2019-03-21T17:01:27.988Z,58.37
2019-03-21T17:03:59.842Z,58.51
2019-03-21T17:06:31.773Z,58.35
2019-03-21T17:09:04.210Z,57.91
2019-03-21T17:11:36.514Z,58.58
2019-03-21T17:14:08.647Z,58.80
2019-03-21T17:16:40.666Z,58.52
2019-03-21T17:19:12.535Z,58.99
2019-03-21T17:21:44.569Z,58.95
2019-03-21T17:24:28.435Z,58.93
2019-03-21T17:26:50.339Z,58.60
2019-03-21T17:29:28.561Z,58.36
2019-03-21T17:32:03.036Z,57.92
2019-03-21T17:34:35.238Z,57.67
2019-03-21T17:37:07.202Z,58.07
2019-03-21T17:39:39.124Z,58.07
2019-03-21T17:42:10.987Z,58.13
2019-03-21T17:44:43.002Z,58.79
2019-03-21T17:47:14.864Z,58.52
2019-03-21T17:49:46.879Z,58.46
2019-03-21T17:52:19.134Z,58.48
2019-03-21T17:54:51.228Z,58.57
2019-03-21T17:57:34.056Z,59.50
2019-03-21T17:59:56.877Z,59.78
2019-03-21T18:02:28.824Z,59.96
2019-03-21T18:05:01.114Z,59.66
2019-03-21T18:07:32.850Z,59.67
2019-03-21T18:10:05.463Z,59.69
2019-03-21T18:12:37.691Z,59.43
2019-03-21T18:15:09.978Z,58.87
2019-03-21T18:17:41.815Z,59.17
2019-03-21T18:20:13.914Z,59.31
2019-03-21T18:22:45.970Z,59.63
2019-03-21T18:25:18.055Z,59.50
2019-03-21T18:27:50.453Z,59.90
2019-03-21T18:30:22.557Z,60.16
2019-03-21T18:32:54.740Z,60.20
2019-03-21T18:35:27.001Z,60.03
2019-03-21T18:38:00.169Z,60.31
2019-03-21T18:40:32.178Z,60.33
2019-03-21T18:43:04.465Z,60.38
2019-03-21T18:45:36.486Z,59.90
2019-03-21T18:48:08.576Z,60.17
2019-03-21T18:50:40.373Z,59.96
2019-03-21T18:53:12.298Z,59.51
2019-03-21T18:55:44.285Z,59.70
2019-03-21T18:58:16.703Z,59.82
2019-03-21T19:00:48.556Z,59.11
2019-03-21T19:03:20.406Z,59.34
2019-03-21T19:05:52.327Z,58.93
2019-03-21T19:08:24.384Z,59.23
2019-03-21T19:10:56.398Z,59.52
2019-03-21T19:13:28.309Z,59.54
2019-03-21T19:16:00.209Z,60.16
2019-03-21T19:18:32.959Z,59.72
2019-03-21T19:21:04.897Z,60.51
2019-03-21T19:23:36.764Z,60.75
2019-03-21T19:26:08.804Z,60.67
2019-03-21T19:28:40.871Z,60.45
2019-03-21T19:31:13.058Z,60.55
2019-03-21T19:33:45.230Z,61.00
2019-03-21T19:36:17.269Z,61.32
2019-03-21T19:38:49.167Z,61.59
2019-03-21T19:41:21.376Z,61.81
2019-03-21T19:43:53.659Z,61.70
2019-03-21T19:46:25.467Z,62.27
2019-03-21T19:48:57.549Z,62.26
2019-03-21T19:51:29.597Z,61.69
2019-03-21T19:54:01.464Z,62.78
2019-03-21T19:56:33.637Z,62.61
2019-03-21T19:59:05.709Z,62.79
2019-03-21T20:01:37.790Z,62.79
2019-03-21T20:04:09.881Z,62.97
2019-03-21T20:06:41.718Z,62.86
2019-03-21T20:09:13.618Z,63.07
2019-03-21T20:11:45.610Z,63.13
2019-03-21T20:14:17.511Z,63.43
2019-03-21T20:16:49.389Z,63.15
2019-03-21T20:19:21.455Z,63.22
2019-03-21T20:21:53.361Z,62.71
2019-03-21T20:24:25.488Z,62.78
2019-03-21T20:26:57.456Z,62.64
2019-03-21T20:29:29.258Z,63.03
2019-03-21T20:32:01.068Z,63.09
2019-03-21T20:34:33.148Z,63.27
2019-03-21T20:37:05.332Z,63.17
2019-03-21T20:39:37.371Z,62.98
2019-03-21T20:42:09.526Z,63.54
2019-03-21T20:44:41.658Z,63.51
2019-03-21T20:47:13.626Z,63.95
2019-03-21T20:49:45.730Z,63.73
2019-03-21T20:52:17.682Z,63.58
2019-03-21T20:54:53.315Z,63.37
2019-03-21T20:57:25.638Z,63.78
2019-03-21T20:59:57.763Z,63.80
2019-03-21T21:02:29.676Z,63.86
2019-03-21T21:05:01.679Z,64.24
2019-03-21T21:07:33.905Z,64.30
2019-03-21T21:10:07.656Z,64.23
2019-03-21T21:12:39.892Z,64.34
2019-03-21T21:15:12.338Z,64.83
2019-03-21T21:17:44.449Z,65.11
2019-03-21T21:20:16.641Z,64.77
2019-03-21T21:22:48.639Z,64.61
2019-03-21T21:25:20.629Z,64.74
2019-03-21T21:27:52.963Z,64.81
2019-03-21T21:30:25.155Z,65.20
2019-03-21T21:32:57.294Z,65.45
2019-03-21T21:35:29.273Z,65.51
2019-03-21T21:38:01.131Z,65.52
2019-03-21T21:40:34.549Z,65.33
2019-03-21T21:43:06.564Z,65.44
2019-03-21T21:45:39.538Z,65.19
2019-03-21T21:48:11.512Z,65.02
2019-03-21T21:50:43.564Z,64.95
2019-03-21T21:53:15.322Z,65.01
2019-03-21T21:55:47.281Z,65.01
2019-03-21T21:58:19.098Z,65.28
2019-03-21T22:00:51.080Z,65.52
2019-03-21T22:03:23.307Z,65.98
2019-03-21T22:05:55.605Z,65.84
2019-03-21T22:08:27.939Z,66.25
2019-03-21T22:11:00.103Z,66.26
2019-03-21T22:13:32.236Z,66.42
2019-03-21T22:16:04.152Z,66.59
2019-03-21T22:18:36.195Z,67.26
2019-03-21T22:21:08.213Z,67.52
2019-03-21T22:23:40.400Z,66.92
2019-03-21T22:26:12.536Z,67.24
2019-03-21T22:28:44.639Z,67.17
2019-03-21T22:31:16.976Z,67.02
2019-03-21T22:33:48.926Z,67.12
2019-03-21T22:36:21.129Z,66.99
2019-03-21T22:38:53.003Z,67.11
2019-03-21T22:41:24.939Z,67.42
2019-03-21T22:43:56.852Z,68.02
2019-03-21T22:46:28.884Z,68.00
2019-03-21T22:49:00.670Z,67.80
2019-03-21T22:51:32.748Z,67.12
2019-03-21T22:54:04.603Z,66.83
2019-03-21T22:56:41.142Z,66.74
2019-03-21T22:59:10.207Z,67.31
2019-03-21T23:01:42.372Z,68.05
2019-03-21T23:04:14.324Z,68.00
2019-03-21T23:06:46.459Z,68.26
2019-03-21T23:09:18.226Z,68.49
2019-03-21T23:11:50.187Z,69.03
2019-03-21T23:14:22.191Z,69.85
2019-03-21T23:16:54.435Z,70.13
2019-03-21T23:19:26.396Z,70.10
2019-03-21T23:21:58.859Z,70.15
2019-03-21T23:24:32.250Z,69.96
2019-03-21T23:27:04.678Z,69.76
2019-03-21T23:29:36.802Z,69.05
2019-03-21T23:32:08.747Z,68.46
2019-03-21T23:34:40.759Z,68.46
2019-03-21T23:37:12.789Z,68.50
2019-03-21T23:39:44.814Z,68.29
2019-03-21T23:42:17.077Z,68.41
2019-03-21T23:44:49.297Z,68.71
2019-03-21T23:47:21.484Z,69.15
2019-03-21T23:49:53.550Z,69.05
2019-03-21T23:52:25.729Z,68.99
2019-03-21T23:54:57.862Z,68.81
2019-03-21T23:57:30.122Z,69.75
